sensor_id;sensor_type;location;lat;lon;timestamp;temperature;humidity
23550;DHT22;11953;49.010;8.608;2022-11-30T00:00:48;8.50;99.90
23550;DHT22;11953;49.010;8.608;2022-11-30T00:03:35;8.50;99.90
23550;DHT22;11953;49.010;8.608;2022-11-30T00:06:22;8.40;99.90
23550;DHT22;11953;49.010;8.608;2022-11-30T00:09:09;8.30;99.90
23550;DHT22;11953;49.010;8.608;2022-11-30T00:11:57;8.30;99.90
23550;DHT22;11953;49.010;8.608;2022-11-30T00:14:45;8.40;99.90
23550;DHT22;11953;49.010;8.608;2022-11-30T00:17:31;8.40;99.90
23550;DHT22;11953;49.010;8.608;2022-11-30T00:20:18;8.30;99.90
23550;DHT22;11953;49.010;8.608;2022-11-30T00:23:04;8.20;99.90
23550;DHT22;11953;49.010;8.608;2022-11-30T00:25:54;8.10;99.90
23550;DHT22;11953;49.010;8.608;2022-11-30T00:28:41;8.20;99.90
23550;DHT22;11953;49.010;8.608;2022-11-30T00:31:30;8.30;99.90
23550;DHT22;11953;49.010;8.608;2022-11-30T00:34:17;8.40;99.90
23550;DHT22;11953;49.010;8.608;2022-11-30T00:37:03;8.40;99.90
23550;DHT22;11953;49.010;8.608;2022-11-30T00:39:50;8.60;99.90
23550;DHT22;11953;49.010;8.608;2022-11-30T00:42:37;8.60;99.90
23550;DHT22;11953;49.010;8.608;2022-11-30T00:45:23;8.60;99.90
23550;DHT22;11953;49.010;8.608;2022-11-30T00:48:11;8.70;99.90
23550;DHT22;11953;49.010;8.608;2022-11-30T00:50:57;8.70;99.90
23550;DHT22;11953;49.010;8.608;2022-11-30T00:53:44;8.60;99.90
23550;DHT22;11953;49.010;8.608;2022-11-30T00:56:32;8.60;99.90
23550;DHT22;11953;49.010;8.608;2022-11-30T00:59:18;8.50;99.90
23550;DHT22;11953;49.010;8.608;2022-11-30T01:02:05;8.60;99.90
23550;DHT22;11953;49.010;8.608;2022-11-30T01:04:53;8.60;99.90
23550;DHT22;11953;49.010;8.608;2022-11-30T01:07:40;8.60;99.90
23550;DHT22;11953;49.010;8.608;2022-11-30T01:10:26;8.50;99.90
23550;DHT22;11953;49.010;8.608;2022-11-30T01:13:13;8.40;99.90
23550;DHT22;11953;49.010;8.608;2022-11-30T01:15:59;8.50;99.90
23550;DHT22;11953;49.010;8.608;2022-11-30T01:18:46;8.30;99.90
23550;DHT22;11953;49.010;8.608;2022-11-30T01:21:34;8.30;99.90
23550;DHT22;11953;49.010;8.608;2022-11-30T01:24:21;8.30;99.90
23550;DHT22;11953;49.010;8.608;2022-11-30T01:27:07;8.40;99.90
23550;DHT22;11953;49.010;8.608;2022-11-30T01:29:53;8.40;99.90
23550;DHT22;11953;49.010;8.608;2022-11-30T01:32:40;8.40;99.90
23550;DHT22;11953;49.010;8.608;2022-11-30T01:35:26;8.40;99.90
23550;DHT22;11953;49.010;8.608;2022-11-30T01:38:15;8.50;99.90
23550;DHT22;11953;49.010;8.608;2022-11-30T01:41:01;8.60;99.90
23550;DHT22;11953;49.010;8.608;2022-11-30T01:43:50;8.50;99.90
23550;DHT22;11953;49.010;8.608;2022-11-30T01:46:39;8.60;99.90
23550;DHT22;11953;49.010;8.608;2022-11-30T01:49:28;8.60;99.90
23550;DHT22;11953;49.010;8.608;2022-11-30T01:52:18;8.60;99.90
23550;DHT22;11953;49.010;8.608;2022-11-30T01:55:14;8.70;99.90
23550;DHT22;11953;49.010;8.608;2022-11-30T01:58:05;8.60;99.90
23550;DHT22;11953;49.010;8.608;2022-11-30T02:00:52;8.50;99.90
23550;DHT22;11953;49.010;8.608;2022-11-30T02:03:42;8.50;99.90
23550;DHT22;11953;49.010;8.608;2022-11-30T02:06:30;8.60;99.90
23550;DHT22;11953;49.010;8.608;2022-11-30T02:09:19;8.70;99.90
23550;DHT22;11953;49.010;8.608;2022-11-30T02:12:14;8.70;99.90
23550;DHT22;11953;49.010;8.608;2022-11-30T02:15:07;8.70;99.90
23550;DHT22;11953;49.010;8.608;2022-11-30T02:18:00;8.60;99.90
23550;DHT22;11953;49.010;8.608;2022-11-30T02:20:59;8.60;99.90
23550;DHT22;11953;49.010;8.608;2022-11-30T02:24:12;8.60;99.90
23550;DHT22;11953;49.010;8.608;2022-11-30T02:27:16;8.60;99.90
23550;DHT22;11953;49.010;8.608;2022-11-30T02:30:08;8.50;99.90
23550;DHT22;11953;49.010;8.608;2022-11-30T02:32:57;8.60;99.90
23550;DHT22;11953;49.010;8.608;2022-11-30T02:35:48;8.50;99.90
23550;DHT22;11953;49.010;8.608;2022-11-30T02:38:40;8.50;99.90
23550;DHT22;11953;49.010;8.608;2022-11-30T02:41:34;8.30;99.90
23550;DHT22;11953;49.010;8.608;2022-11-30T02:44:23;8.30;99.90
23550;DHT22;11953;49.010;8.608;2022-11-30T02:47:18;8.30;99.90
23550;DHT22;11953;49.010;8.608;2022-11-30T02:50:10;8.30;99.90
23550;DHT22;11953;49.010;8.608;2022-11-30T02:53:00;8.30;99.90
23550;DHT22;11953;49.010;8.608;2022-11-30T02:55:46;8.20;99.90
23550;DHT22;11953;49.010;8.608;2022-11-30T02:58:33;8.20;99.90
23550;DHT22;11953;49.010;8.608;2022-11-30T03:01:20;8.10;99.90
23550;DHT22;11953;49.010;8.608;2022-11-30T03:04:08;8.10;99.90
23550;DHT22;11953;49.010;8.608;2022-11-30T03:06:55;8.00;99.90
23550;DHT22;11953;49.010;8.608;2022-11-30T03:09:42;8.10;99.90
23550;DHT22;11953;49.010;8.608;2022-11-30T03:12:28;8.00;99.90
23550;DHT22;11953;49.010;8.608;2022-11-30T03:15:15;8.00;99.90
23550;DHT22;11953;49.010;8.608;2022-11-30T03:18:02;8.00;99.90
23550;DHT22;11953;49.010;8.608;2022-11-30T03:20:50;8.00;99.90
23550;DHT22;11953;49.010;8.608;2022-11-30T03:23:37;7.90;99.90
23550;DHT22;11953;49.010;8.608;2022-11-30T03:26:25;7.90;99.90
23550;DHT22;11953;49.010;8.608;2022-11-30T03:29:12;7.90;99.90
23550;DHT22;11953;49.010;8.608;2022-11-30T03:31:59;7.90;99.90
23550;DHT22;11953;49.010;8.608;2022-11-30T03:34:45;8.00;99.90
23550;DHT22;11953;49.010;8.608;2022-11-30T03:37:34;8.00;99.90
23550;DHT22;11953;49.010;8.608;2022-11-30T03:40:20;8.00;99.90
23550;DHT22;11953;49.010;8.608;2022-11-30T03:43:07;7.90;99.90
23550;DHT22;11953;49.010;8.608;2022-11-30T03:45:53;7.80;99.90
23550;DHT22;11953;49.010;8.608;2022-11-30T03:48:40;8.00;99.90
23550;DHT22;11953;49.010;8.608;2022-11-30T03:51:26;8.00;99.90
23550;DHT22;11953;49.010;8.608;2022-11-30T03:54:14;8.00;99.90
23550;DHT22;11953;49.010;8.608;2022-11-30T03:57:01;8.00;99.90
23550;DHT22;11953;49.010;8.608;2022-11-30T03:59:47;8.00;99.90
23550;DHT22;11953;49.010;8.608;2022-11-30T04:02:34;8.00;99.90
23550;DHT22;11953;49.010;8.608;2022-11-30T04:05:28;8.00;99.90
23550;DHT22;11953;49.010;8.608;2022-11-30T04:08:15;8.00;99.90
23550;DHT22;11953;49.010;8.608;2022-11-30T04:11:03;8.00;99.90
23550;DHT22;11953;49.010;8.608;2022-11-30T04:13:50;8.00;99.90
23550;DHT22;11953;49.010;8.608;2022-11-30T04:16:36;8.10;99.90
23550;DHT22;11953;49.010;8.608;2022-11-30T04:19:23;8.10;99.90
23550;DHT22;11953;49.010;8.608;2022-11-30T04:22:09;8.10;99.90
23550;DHT22;11953;49.010;8.608;2022-11-30T04:24:56;8.20;99.90
23550;DHT22;11953;49.010;8.608;2022-11-30T04:27:45;8.20;99.90
23550;DHT22;11953;49.010;8.608;2022-11-30T04:30:32;8.20;99.90
23550;DHT22;11953;49.010;8.608;2022-11-30T04:33:19;8.10;99.90
23550;DHT22;11953;49.010;8.608;2022-11-30T04:36:06;8.10;99.90
23550;DHT22;11953;49.010;8.608;2022-11-30T04:38:53;8.10;99.90
23550;DHT22;11953;49.010;8.608;2022-11-30T04:41:40;8.10;99.90
23550;DHT22;11953;49.010;8.608;2022-11-30T04:44:27;8.00;99.90
23550;DHT22;11953;49.010;8.608;2022-11-30T04:47:14;7.80;99.90
23550;DHT22;11953;49.010;8.608;2022-11-30T04:50:00;7.70;99.90
23550;DHT22;11953;49.010;8.608;2022-11-30T04:52:47;7.70;99.90
23550;DHT22;11953;49.010;8.608;2022-11-30T04:55:34;7.70;99.90
23550;DHT22;11953;49.010;8.608;2022-11-30T04:58:21;7.60;99.90
23550;DHT22;11953;49.010;8.608;2022-11-30T05:01:09;7.60;99.90
23550;DHT22;11953;49.010;8.608;2022-11-30T05:03:56;7.60;99.90
23550;DHT22;11953;49.010;8.608;2022-11-30T05:06:44;7.70;99.90
23550;DHT22;11953;49.010;8.608;2022-11-30T05:09:31;7.70;99.90
23550;DHT22;11953;49.010;8.608;2022-11-30T05:12:17;7.60;99.90
23550;DHT22;11953;49.010;8.608;2022-11-30T05:15:05;7.60;99.90
23550;DHT22;11953;49.010;8.608;2022-11-30T05:17:57;7.60;99.90
23550;DHT22;11953;49.010;8.608;2022-11-30T05:20:46;7.50;99.90
23550;DHT22;11953;49.010;8.608;2022-11-30T05:23:33;7.50;99.90
23550;DHT22;11953;49.010;8.608;2022-11-30T05:26:19;7.40;99.90
23550;DHT22;11953;49.010;8.608;2022-11-30T05:29:06;7.30;99.90
23550;DHT22;11953;49.010;8.608;2022-11-30T05:31:52;7.30;99.90
23550;DHT22;11953;49.010;8.608;2022-11-30T05:34:40;7.30;99.90
23550;DHT22;11953;49.010;8.608;2022-11-30T05:37:36;7.30;99.90
23550;DHT22;11953;49.010;8.608;2022-11-30T05:40:22;7.40;99.90
23550;DHT22;11953;49.010;8.608;2022-11-30T05:43:09;7.40;99.90
23550;DHT22;11953;49.010;8.608;2022-11-30T05:45:58;7.30;99.90
23550;DHT22;11953;49.010;8.608;2022-11-30T05:48:46;7.20;99.90
23550;DHT22;11953;49.010;8.608;2022-11-30T05:51:34;7.10;99.90
23550;DHT22;11953;49.010;8.608;2022-11-30T05:54:20;7.10;99.90
23550;DHT22;11953;49.010;8.608;2022-11-30T05:57:06;7.00;99.90
23550;DHT22;11953;49.010;8.608;2022-11-30T05:59:53;7.00;99.90
23550;DHT22;11953;49.010;8.608;2022-11-30T06:02:39;7.00;99.90
23550;DHT22;11953;49.010;8.608;2022-11-30T06:05:26;7.00;99.90
23550;DHT22;11953;49.010;8.608;2022-11-30T06:08:14;7.00;99.90
23550;DHT22;11953;49.010;8.608;2022-11-30T06:11:01;7.00;99.90
23550;DHT22;11953;49.010;8.608;2022-11-30T06:13:48;7.10;99.90
23550;DHT22;11953;49.010;8.608;2022-11-30T06:16:36;7.10;99.90
23550;DHT22;11953;49.010;8.608;2022-11-30T06:19:23;7.10;99.90
23550;DHT22;11953;49.010;8.608;2022-11-30T06:22:09;7.20;99.90
23550;DHT22;11953;49.010;8.608;2022-11-30T06:24:57;7.20;99.90
23550;DHT22;11953;49.010;8.608;2022-11-30T06:27:43;7.20;99.90
23550;DHT22;11953;49.010;8.608;2022-11-30T06:30:30;7.10;99.90
23550;DHT22;11953;49.010;8.608;2022-11-30T06:33:21;7.10;99.90
23550;DHT22;11953;49.010;8.608;2022-11-30T06:36:08;7.10;99.90
23550;DHT22;11953;49.010;8.608;2022-11-30T06:38:54;7.10;99.90
23550;DHT22;11953;49.010;8.608;2022-11-30T06:41:42;7.10;99.90
23550;DHT22;11953;49.010;8.608;2022-11-30T06:44:29;7.00;99.90
23550;DHT22;11953;49.010;8.608;2022-11-30T06:47:15;7.00;99.90
23550;DHT22;11953;49.010;8.608;2022-11-30T06:50:02;7.00;99.90
23550;DHT22;11953;49.010;8.608;2022-11-30T06:52:48;7.10;99.90
23550;DHT22;11953;49.010;8.608;2022-11-30T06:55:35;7.20;99.90
23550;DHT22;11953;49.010;8.608;2022-11-30T06:58:24;7.20;99.90
23550;DHT22;11953;49.010;8.608;2022-11-30T07:01:11;7.30;99.90
23550;DHT22;11953;49.010;8.608;2022-11-30T07:03:59;7.40;99.90
23550;DHT22;11953;49.010;8.608;2022-11-30T07:06:46;7.20;99.90
23550;DHT22;11953;49.010;8.608;2022-11-30T07:09:32;7.20;99.90
23550;DHT22;11953;49.010;8.608;2022-11-30T07:12:19;7.20;99.90
23550;DHT22;11953;49.010;8.608;2022-11-30T07:15:08;7.20;99.90
23550;DHT22;11953;49.010;8.608;2022-11-30T07:17:55;7.10;99.90
23550;DHT22;11953;49.010;8.608;2022-11-30T07:20:41;7.00;99.90
23550;DHT22;11953;49.010;8.608;2022-11-30T07:23:28;7.00;99.90
23550;DHT22;11953;49.010;8.608;2022-11-30T07:26:40;6.90;99.90
23550;DHT22;11953;49.010;8.608;2022-11-30T07:29:27;6.90;99.90
23550;DHT22;11953;49.010;8.608;2022-11-30T07:32:15;6.90;99.90
23550;DHT22;11953;49.010;8.608;2022-11-30T07:35:01;7.00;99.90
23550;DHT22;11953;49.010;8.608;2022-11-30T07:37:47;7.00;99.90
23550;DHT22;11953;49.010;8.608;2022-11-30T07:40:34;7.10;99.90
23550;DHT22;11953;49.010;8.608;2022-11-30T07:43:20;7.10;99.90
23550;DHT22;11953;49.010;8.608;2022-11-30T07:46:09;7.00;99.90
23550;DHT22;11953;49.010;8.608;2022-11-30T07:48:58;7.00;99.90
23550;DHT22;11953;49.010;8.608;2022-11-30T07:51:44;7.00;99.90
23550;DHT22;11953;49.010;8.608;2022-11-30T07:54:31;6.90;99.90
23550;DHT22;11953;49.010;8.608;2022-11-30T07:57:17;7.00;99.90
23550;DHT22;11953;49.010;8.608;2022-11-30T08:00:05;7.00;99.90
23550;DHT22;11953;49.010;8.608;2022-11-30T08:02:56;7.00;99.90
23550;DHT22;11953;49.010;8.608;2022-11-30T08:05:44;7.10;99.90
23550;DHT22;11953;49.010;8.608;2022-11-30T08:08:31;7.20;99.90
23550;DHT22;11953;49.010;8.608;2022-11-30T08:11:19;7.20;99.90
23550;DHT22;11953;49.010;8.608;2022-11-30T08:14:10;7.10;99.90
23550;DHT22;11953;49.010;8.608;2022-11-30T08:16:57;7.10;99.90
23550;DHT22;11953;49.010;8.608;2022-11-30T08:19:43;7.00;99.90
23550;DHT22;11953;49.010;8.608;2022-11-30T08:22:31;7.00;99.90
23550;DHT22;11953;49.010;8.608;2022-11-30T08:25:18;7.00;99.90
23550;DHT22;11953;49.010;8.608;2022-11-30T08:28:05;7.10;99.90
23550;DHT22;11953;49.010;8.608;2022-11-30T08:30:52;7.10;99.90
23550;DHT22;11953;49.010;8.608;2022-11-30T08:33:39;7.10;99.90
23550;DHT22;11953;49.010;8.608;2022-11-30T08:36:27;7.10;99.90
23550;DHT22;11953;49.010;8.608;2022-11-30T08:39:15;7.10;99.90
23550;DHT22;11953;49.010;8.608;2022-11-30T08:42:02;7.20;99.90
23550;DHT22;11953;49.010;8.608;2022-11-30T08:44:48;7.30;99.90
23550;DHT22;11953;49.010;8.608;2022-11-30T08:47:35;7.30;99.90
23550;DHT22;11953;49.010;8.608;2022-11-30T08:50:22;7.30;99.90
23550;DHT22;11953;49.010;8.608;2022-11-30T08:53:09;7.30;99.90
23550;DHT22;11953;49.010;8.608;2022-11-30T08:55:58;7.30;99.90
23550;DHT22;11953;49.010;8.608;2022-11-30T08:58:46;7.40;99.90
23550;DHT22;11953;49.010;8.608;2022-11-30T09:01:33;7.40;99.90
23550;DHT22;11953;49.010;8.608;2022-11-30T09:04:19;7.40;99.90
23550;DHT22;11953;49.010;8.608;2022-11-30T09:07:06;7.40;99.90
23550;DHT22;11953;49.010;8.608;2022-11-30T09:09:53;7.40;99.90
23550;DHT22;11953;49.010;8.608;2022-11-30T09:12:41;7.40;99.90
23550;DHT22;11953;49.010;8.608;2022-11-30T09:15:28;7.40;99.90
23550;DHT22;11953;49.010;8.608;2022-11-30T09:18:14;7.40;99.90
23550;DHT22;11953;49.010;8.608;2022-11-30T09:21:02;7.50;99.90
23550;DHT22;11953;49.010;8.608;2022-11-30T09:23:50;7.60;99.90
23550;DHT22;11953;49.010;8.608;2022-11-30T09:26:37;7.70;99.90
23550;DHT22;11953;49.010;8.608;2022-11-30T09:29:25;7.80;99.90
23550;DHT22;11953;49.010;8.608;2022-11-30T09:32:11;7.80;99.90
23550;DHT22;11953;49.010;8.608;2022-11-30T09:34:57;7.90;99.90
23550;DHT22;11953;49.010;8.608;2022-11-30T09:37:44;7.90;99.90
23550;DHT22;11953;49.010;8.608;2022-11-30T09:40:31;7.90;99.90
23550;DHT22;11953;49.010;8.608;2022-11-30T09:43:29;7.90;99.90
23550;DHT22;11953;49.010;8.608;2022-11-30T09:46:24;7.90;99.90
23550;DHT22;11953;49.010;8.608;2022-11-30T09:49:17;7.80;99.90
23550;DHT22;11953;49.010;8.608;2022-11-30T09:52:10;7.80;99.90
23550;DHT22;11953;49.010;8.608;2022-11-30T09:54:58;7.80;99.90
23550;DHT22;11953;49.010;8.608;2022-11-30T09:57:51;7.80;99.90
23550;DHT22;11953;49.010;8.608;2022-11-30T10:00:38;7.90;99.90
23550;DHT22;11953;49.010;8.608;2022-11-30T10:03:26;7.90;99.90
23550;DHT22;11953;49.010;8.608;2022-11-30T10:06:20;7.80;99.90
23550;DHT22;11953;49.010;8.608;2022-11-30T10:09:24;7.80;99.90
23550;DHT22;11953;49.010;8.608;2022-11-30T10:12:15;7.80;99.90
23550;DHT22;11953;49.010;8.608;2022-11-30T10:15:14;7.70;99.90
23550;DHT22;11953;49.010;8.608;2022-11-30T10:18:14;7.70;99.90
23550;DHT22;11953;49.010;8.608;2022-11-30T10:21:12;7.80;99.90
23550;DHT22;11953;49.010;8.608;2022-11-30T10:24:12;7.80;99.90
23550;DHT22;11953;49.010;8.608;2022-11-30T10:27:09;7.90;99.90
23550;DHT22;11953;49.010;8.608;2022-11-30T10:29:59;7.80;99.90
23550;DHT22;11953;49.010;8.608;2022-11-30T10:32:49;7.90;99.90
23550;DHT22;11953;49.010;8.608;2022-11-30T10:35:40;7.90;99.90
23550;DHT22;11953;49.010;8.608;2022-11-30T10:38:30;7.90;99.90
23550;DHT22;11953;49.010;8.608;2022-11-30T10:41:23;8.10;99.90
23550;DHT22;11953;49.010;8.608;2022-11-30T10:44:13;8.10;99.90
23550;DHT22;11953;49.010;8.608;2022-11-30T10:47:09;8.10;99.90
23550;DHT22;11953;49.010;8.608;2022-11-30T10:49:57;8.30;99.90
23550;DHT22;11953;49.010;8.608;2022-11-30T10:52:46;8.40;99.90
23550;DHT22;11953;49.010;8.608;2022-11-30T10:55:37;8.60;99.90
23550;DHT22;11953;49.010;8.608;2022-11-30T10:58:28;8.60;99.90
23550;DHT22;11953;49.010;8.608;2022-11-30T11:01:29;8.80;99.90
23550;DHT22;11953;49.010;8.608;2022-11-30T11:04:18;8.90;99.90
23550;DHT22;11953;49.010;8.608;2022-11-30T11:07:08;9.00;99.90
23550;DHT22;11953;49.010;8.608;2022-11-30T11:09:55;9.00;99.90
23550;DHT22;11953;49.010;8.608;2022-11-30T11:12:49;8.80;99.90
23550;DHT22;11953;49.010;8.608;2022-11-30T11:15:36;8.60;99.90
23550;DHT22;11953;49.010;8.608;2022-11-30T11:18:25;8.50;99.90
23550;DHT22;11953;49.010;8.608;2022-11-30T11:21:16;8.50;99.90
23550;DHT22;11953;49.010;8.608;2022-11-30T11:24:08;8.40;99.90
23550;DHT22;11953;49.010;8.608;2022-11-30T11:26:55;8.50;99.90
23550;DHT22;11953;49.010;8.608;2022-11-30T11:29:44;8.50;99.90
23550;DHT22;11953;49.010;8.608;2022-11-30T11:32:32;8.50;99.90
23550;DHT22;11953;49.010;8.608;2022-11-30T11:35:32;8.40;99.90
23550;DHT22;11953;49.010;8.608;2022-11-30T11:38:24;8.50;99.90
23550;DHT22;11953;49.010;8.608;2022-11-30T11:41:16;8.50;99.90
23550;DHT22;11953;49.010;8.608;2022-11-30T11:44:18;8.50;99.90
23550;DHT22;11953;49.010;8.608;2022-11-30T11:47:22;8.60;99.90
23550;DHT22;11953;49.010;8.608;2022-11-30T11:50:28;8.60;99.90
23550;DHT22;11953;49.010;8.608;2022-11-30T11:53:41;8.60;99.90
23550;DHT22;11953;49.010;8.608;2022-11-30T11:56:37;8.60;99.90
23550;DHT22;11953;49.010;8.608;2022-11-30T11:59:35;8.70;99.90
23550;DHT22;11953;49.010;8.608;2022-11-30T12:02:29;8.60;99.90
23550;DHT22;11953;49.010;8.608;2022-11-30T12:05:23;8.60;99.90
23550;DHT22;11953;49.010;8.608;2022-11-30T12:08:16;8.60;99.90
23550;DHT22;11953;49.010;8.608;2022-11-30T12:11:08;8.50;99.90
23550;DHT22;11953;49.010;8.608;2022-11-30T12:14:02;8.60;99.90
23550;DHT22;11953;49.010;8.608;2022-11-30T12:17:04;8.60;99.90
23550;DHT22;11953;49.010;8.608;2022-11-30T12:20:00;8.60;99.90
23550;DHT22;11953;49.010;8.608;2022-11-30T12:23:02;8.50;99.90
23550;DHT22;11953;49.010;8.608;2022-11-30T12:25:56;8.50;99.90
23550;DHT22;11953;49.010;8.608;2022-11-30T12:28:52;8.40;99.90
23550;DHT22;11953;49.010;8.608;2022-11-30T12:31:52;8.40;99.90
23550;DHT22;11953;49.010;8.608;2022-11-30T12:35:00;8.30;99.90
23550;DHT22;11953;49.010;8.608;2022-11-30T12:37:58;8.30;99.90
23550;DHT22;11953;49.010;8.608;2022-11-30T12:40:55;8.30;99.90
23550;DHT22;11953;49.010;8.608;2022-11-30T12:43:50;8.30;99.90
23550;DHT22;11953;49.010;8.608;2022-11-30T12:46:44;8.30;99.90
23550;DHT22;11953;49.010;8.608;2022-11-30T12:49:42;8.30;99.90
23550;DHT22;11953;49.010;8.608;2022-11-30T12:52:44;8.30;99.90
23550;DHT22;11953;49.010;8.608;2022-11-30T12:55:36;8.30;99.90
23550;DHT22;11953;49.010;8.608;2022-11-30T12:58:32;8.30;99.90
23550;DHT22;11953;49.010;8.608;2022-11-30T13:01:31;8.30;99.90
23550;DHT22;11953;49.010;8.608;2022-11-30T13:04:24;8.20;99.90
23550;DHT22;11953;49.010;8.608;2022-11-30T13:07:21;8.30;99.90
23550;DHT22;11953;49.010;8.608;2022-11-30T13:10:19;8.40;99.90
23550;DHT22;11953;49.010;8.608;2022-11-30T13:13:11;8.50;99.90
23550;DHT22;11953;49.010;8.608;2022-11-30T13:16:02;8.50;99.90
23550;DHT22;11953;49.010;8.608;2022-11-30T13:18:50;8.40;99.90
23550;DHT22;11953;49.010;8.608;2022-11-30T13:21:39;8.40;99.90
23550;DHT22;11953;49.010;8.608;2022-11-30T13:24:35;8.50;99.90
23550;DHT22;11953;49.010;8.608;2022-11-30T13:27:29;8.50;99.90
23550;DHT22;11953;49.010;8.608;2022-11-30T13:30:26;8.40;99.90
23550;DHT22;11953;49.010;8.608;2022-11-30T13:33:42;8.50;99.90
23550;DHT22;11953;49.010;8.608;2022-11-30T13:36:33;8.50;99.90
23550;DHT22;11953;49.010;8.608;2022-11-30T13:39:22;8.50;99.90
23550;DHT22;11953;49.010;8.608;2022-11-30T13:42:29;8.40;99.90
23550;DHT22;11953;49.010;8.608;2022-11-30T13:45:24;8.40;99.90
23550;DHT22;11953;49.010;8.608;2022-11-30T13:48:29;8.30;99.90
23550;DHT22;11953;49.010;8.608;2022-11-30T13:51:35;8.30;99.90
23550;DHT22;11953;49.010;8.608;2022-11-30T13:54:38;8.30;99.90
23550;DHT22;11953;49.010;8.608;2022-11-30T13:58:03;8.30;99.90
23550;DHT22;11953;49.010;8.608;2022-11-30T14:01:22;8.20;99.90
23550;DHT22;11953;49.010;8.608;2022-11-30T14:04:31;8.20;99.90
23550;DHT22;11953;49.010;8.608;2022-11-30T14:07:34;8.20;99.90
23550;DHT22;11953;49.010;8.608;2022-11-30T14:10:28;8.30;99.90
23550;DHT22;11953;49.010;8.608;2022-11-30T14:13:30;8.30;99.90
23550;DHT22;11953;49.010;8.608;2022-11-30T14:16:20;8.30;99.90
23550;DHT22;11953;49.010;8.608;2022-11-30T14:19:09;8.20;99.90
23550;DHT22;11953;49.010;8.608;2022-11-30T14:21:56;8.30;99.90
23550;DHT22;11953;49.010;8.608;2022-11-30T14:24:45;8.20;99.90
23550;DHT22;11953;49.010;8.608;2022-11-30T14:27:35;8.30;99.90
23550;DHT22;11953;49.010;8.608;2022-11-30T14:30:23;8.30;99.90
23550;DHT22;11953;49.010;8.608;2022-11-30T14:33:14;8.40;99.90
23550;DHT22;11953;49.010;8.608;2022-11-30T14:36:06;8.50;99.90
23550;DHT22;11953;49.010;8.608;2022-11-30T14:38:53;8.40;99.90
23550;DHT22;11953;49.010;8.608;2022-11-30T14:41:40;8.40;99.90
23550;DHT22;11953;49.010;8.608;2022-11-30T14:44:30;8.40;99.90
23550;DHT22;11953;49.010;8.608;2022-11-30T14:47:22;8.50;99.90
23550;DHT22;11953;49.010;8.608;2022-11-30T14:50:20;8.50;99.90
23550;DHT22;11953;49.010;8.608;2022-11-30T14:53:16;8.50;99.90
23550;DHT22;11953;49.010;8.608;2022-11-30T14:56:14;8.50;99.90
23550;DHT22;11953;49.010;8.608;2022-11-30T14:59:15;8.60;99.90
23550;DHT22;11953;49.010;8.608;2022-11-30T15:02:05;8.60;99.90
23550;DHT22;11953;49.010;8.608;2022-11-30T15:04:58;8.40;99.90
23550;DHT22;11953;49.010;8.608;2022-11-30T15:07:46;8.50;99.90
23550;DHT22;11953;49.010;8.608;2022-11-30T15:10:33;8.40;99.90
23550;DHT22;11953;49.010;8.608;2022-11-30T15:13:20;8.40;99.90
23550;DHT22;11953;49.010;8.608;2022-11-30T15:16:10;8.40;99.90
23550;DHT22;11953;49.010;8.608;2022-11-30T15:19:19;8.40;99.90
23550;DHT22;11953;49.010;8.608;2022-11-30T15:22:20;8.40;99.90
23550;DHT22;11953;49.010;8.608;2022-11-30T15:25:11;8.40;99.90
23550;DHT22;11953;49.010;8.608;2022-11-30T15:27:58;8.30;99.90
23550;DHT22;11953;49.010;8.608;2022-11-30T15:30:46;8.20;99.90
23550;DHT22;11953;49.010;8.608;2022-11-30T15:33:39;8.10;99.90
23550;DHT22;11953;49.010;8.608;2022-11-30T15:36:32;8.20;99.90
23550;DHT22;11953;49.010;8.608;2022-11-30T15:39:22;8.10;99.90
23550;DHT22;11953;49.010;8.608;2022-11-30T15:42:18;8.10;99.90
23550;DHT22;11953;49.010;8.608;2022-11-30T15:45:15;8.10;99.90
23550;DHT22;11953;49.010;8.608;2022-11-30T15:48:02;8.00;99.90
23550;DHT22;11953;49.010;8.608;2022-11-30T15:51:21;8.00;99.90
23550;DHT22;11953;49.010;8.608;2022-11-30T15:54:08;8.00;99.90
23550;DHT22;11953;49.010;8.608;2022-11-30T15:56:57;8.00;99.90
23550;DHT22;11953;49.010;8.608;2022-11-30T16:00:04;7.90;99.90
23550;DHT22;11953;49.010;8.608;2022-11-30T16:03:06;7.80;99.90
23550;DHT22;11953;49.010;8.608;2022-11-30T16:05:54;7.70;99.90
23550;DHT22;11953;49.010;8.608;2022-11-30T16:08:45;7.70;99.90
23550;DHT22;11953;49.010;8.608;2022-11-30T16:11:33;7.70;99.90
23550;DHT22;11953;49.010;8.608;2022-11-30T16:14:21;7.60;99.90
23550;DHT22;11953;49.010;8.608;2022-11-30T16:17:10;7.70;99.90
23550;DHT22;11953;49.010;8.608;2022-11-30T16:19:57;7.70;99.90
23550;DHT22;11953;49.010;8.608;2022-11-30T16:22:45;7.70;99.90
23550;DHT22;11953;49.010;8.608;2022-11-30T16:25:32;7.60;99.90
23550;DHT22;11953;49.010;8.608;2022-11-30T16:28:19;7.60;99.90
23550;DHT22;11953;49.010;8.608;2022-11-30T16:31:15;7.60;99.90
23550;DHT22;11953;49.010;8.608;2022-11-30T16:34:02;7.60;99.90
23550;DHT22;11953;49.010;8.608;2022-11-30T16:36:48;7.50;99.90
23550;DHT22;11953;49.010;8.608;2022-11-30T16:39:35;7.40;99.90
23550;DHT22;11953;49.010;8.608;2022-11-30T16:42:22;7.50;99.90
23550;DHT22;11953;49.010;8.608;2022-11-30T16:45:13;7.50;99.90
23550;DHT22;11953;49.010;8.608;2022-11-30T16:48:03;7.50;99.90
23550;DHT22;11953;49.010;8.608;2022-11-30T16:50:50;7.50;99.90
23550;DHT22;11953;49.010;8.608;2022-11-30T16:53:37;7.50;99.90
23550;DHT22;11953;49.010;8.608;2022-11-30T16:56:23;7.60;99.90
23550;DHT22;11953;49.010;8.608;2022-11-30T16:59:10;7.60;99.90
23550;DHT22;11953;49.010;8.608;2022-11-30T17:02:02;7.50;99.90
23550;DHT22;11953;49.010;8.608;2022-11-30T17:04:50;7.60;99.90
23550;DHT22;11953;49.010;8.608;2022-11-30T17:07:37;7.60;99.90
23550;DHT22;11953;49.010;8.608;2022-11-30T17:10:24;7.60;99.90
23550;DHT22;11953;49.010;8.608;2022-11-30T17:13:12;7.60;99.90
23550;DHT22;11953;49.010;8.608;2022-11-30T17:15:59;7.60;99.90
23550;DHT22;11953;49.010;8.608;2022-11-30T17:18:45;7.40;99.90
23550;DHT22;11953;49.010;8.608;2022-11-30T17:21:37;7.40;99.90
23550;DHT22;11953;49.010;8.608;2022-11-30T17:24:23;7.40;99.90
23550;DHT22;11953;49.010;8.608;2022-11-30T17:27:10;7.40;99.90
23550;DHT22;11953;49.010;8.608;2022-11-30T17:29:57;7.40;99.90
23550;DHT22;11953;49.010;8.608;2022-11-30T17:32:44;7.40;99.90
23550;DHT22;11953;49.010;8.608;2022-11-30T17:35:30;7.20;99.90
23550;DHT22;11953;49.010;8.608;2022-11-30T17:38:18;7.20;99.90
23550;DHT22;11953;49.010;8.608;2022-11-30T17:41:05;7.10;99.90
23550;DHT22;11953;49.010;8.608;2022-11-30T17:43:52;7.20;99.90
23550;DHT22;11953;49.010;8.608;2022-11-30T17:46:39;7.10;99.90
23550;DHT22;11953;49.010;8.608;2022-11-30T17:49:32;7.00;99.90
23550;DHT22;11953;49.010;8.608;2022-11-30T17:52:18;7.10;99.90
23550;DHT22;11953;49.010;8.608;2022-11-30T17:55:09;7.10;99.90
23550;DHT22;11953;49.010;8.608;2022-11-30T17:57:56;7.10;99.90
23550;DHT22;11953;49.010;8.608;2022-11-30T18:00:43;7.20;99.90
23550;DHT22;11953;49.010;8.608;2022-11-30T18:03:29;7.20;99.90
23550;DHT22;11953;49.010;8.608;2022-11-30T18:06:16;7.10;99.90
23550;DHT22;11953;49.010;8.608;2022-11-30T18:09:03;7.10;99.90
23550;DHT22;11953;49.010;8.608;2022-11-30T18:11:51;7.10;99.90